Time;durP1;ratioP1;P1;durP2;ratioP2;P2;SDS_P1;SDS_P2;PMS_P1;PMS_P2;Temp;Humidity;BMP_temperature;BMP_pressure;BME280_temperature;BME280_humidity;BME280_pressure;Samples;Min_cycle;Max_cycle;Signal;HPM_P1;HPM_P2
2021/01/08 00:05:30;;;;;;;16.05;9.63;;;;;;;-0.28;77.38;97276.09;13101821;22;20027;-76
2021/01/08 00:10:50;;;;;;;13.82;9.38;;;;;;;-0.35;77.09;97270.00;13141996;22;20027;-76
2021/01/08 00:16:10;;;;;;;15.05;9.23;;;;;;;-0.31;77.07;97269.66;13075909;22;20052;-76
2021/01/08 00:21:42;;;;;;;15.32;9.90;;;;;;;-0.26;77.30;97260.56;13119983;22;20027;-76
2021/01/08 00:27:03;;;;;;;14.73;9.30;;;;;;;-0.25;77.26;97264.06;13076522;22;20097;-76
2021/01/08 00:32:23;;;;;;;14.05;9.20;;;;;;;-0.31;77.44;97264.91;13096381;22;20098;-76
2021/01/08 00:37:42;;;;;;;13.85;9.48;;;;;;;-0.33;77.17;97269.47;13118869;22;20549;-76
2021/01/08 00:43:03;;;;;;;13.73;9.65;;;;;;;-0.26;77.21;97254.34;13142724;22;20093;-76
2021/01/08 00:48:23;;;;;;;13.80;9.82;;;;;;;-0.21;76.96;97262.44;13096731;22;20061;-76
2021/01/08 00:53:43;;;;;;;15.25;10.52;;;;;;;-0.25;76.84;97259.31;13141283;22;20325;-76
2021/01/08 00:59:04;;;;;;;13.68;9.52;;;;;;;-0.23;76.66;97254.03;13117470;22;20046;-76
2021/01/08 01:04:23;;;;;;;14.30;10.02;;;;;;;-0.25;77.02;97269.53;13117427;22;20090;-76
2021/01/08 01:09:44;;;;;;;14.30;10.27;;;;;;;-0.28;77.19;97271.34;13074998;22;20030;-76
2021/01/08 01:15:06;;;;;;;13.35;9.13;;;;;;;-0.29;76.67;97272.59;13101189;22;20034;-76
2021/01/08 01:20:26;;;;;;;15.45;10.00;;;;;;;-0.31;76.80;97272.41;13119079;22;20027;-76
2021/01/08 01:25:46;;;;;;;15.05;10.07;;;;;;;-0.37;76.78;97283.50;13052659;22;20022;-76
2021/01/08 01:31:05;;;;;;;14.13;10.32;;;;;;;-0.47;77.51;97282.47;13052149;22;20034;-76
2021/01/08 01:36:25;;;;;;;13.60;10.35;;;;;;;-0.49;76.91;97276.78;13095021;22;20080;-76
2021/01/08 01:41:45;;;;;;;15.15;10.32;;;;;;;-0.51;76.57;97290.28;13096829;22;20042;-76
2021/01/08 01:47:05;;;;;;;14.50;10.52;;;;;;;-0.49;76.83;97274.03;13095452;22;20042;-76
2021/01/08 01:52:24;;;;;;;13.70;10.05;;;;;;;-0.53;76.66;97270.16;13073379;22;20027;-76
2021/01/08 01:57:44;;;;;;;14.93;9.98;;;;;;;-0.67;76.97;97266.72;13117961;22;20026;-76
2021/01/08 02:03:14;;;;;;;14.57;10.32;;;;;;;-0.69;76.82;97255.53;13093840;22;20023;-76
2021/01/08 02:08:34;;;;;;;15.30;10.32;;;;;;;-0.70;76.92;97260.28;13094314;22;20027;-76
2021/01/08 02:14:10;;;;;;;14.23;9.70;;;;;;;-0.67;76.78;97258.50;13047348;22;20049;-76
2021/01/08 02:19:51;;;;;;;13.88;10.40;;;;;;;-0.72;76.57;97259.34;13074438;22;20101;-76
2021/01/08 02:25:14;;;;;;;14.32;9.18;;;;;;;-0.69;76.74;97264.47;13095695;22;20465;-76
2021/01/08 02:30:35;;;;;;;12.48;9.43;;;;;;;-0.74;76.80;97253.66;13095255;22;20056;-76
2021/01/08 02:35:55;;;;;;;12.73;8.75;;;;;;;-0.68;76.95;97243.28;13094513;22;20098;-76
2021/01/08 02:41:15;;;;;;;12.38;8.82;;;;;;;-0.64;77.13;97243.72;13053074;22;20080;-76
2021/01/08 02:46:34;;;;;;;13.52;8.95;;;;;;;-0.61;76.92;97237.16;13073233;22;20122;-76
2021/01/08 02:51:54;;;;;;;11.60;8.25;;;;;;;-0.59;76.68;97240.09;13116218;22;20346;-76
2021/01/08 02:57:14;;;;;;;11.45;7.88;;;;;;;-0.54;76.57;97236.50;13094249;22;20042;-76
2021/01/08 03:02:34;;;;;;;11.43;8.25;;;;;;;-0.47;76.54;97224.91;13095842;22;20322;-76
2021/01/08 03:07:55;;;;;;;10.90;7.82;;;;;;;-0.47;76.45;97235.88;13073391;22;20098;-76
2021/01/08 03:13:15;;;;;;;11.50;7.03;;;;;;;-0.53;75.83;97231.78;13046175;22;20026;-76
2021/01/08 03:18:34;;;;;;;9.73;7.10;;;;;;;-0.60;76.18;97231.16;13097796;22;20042;-76
2021/01/08 03:23:55;;;;;;;11.18;6.82;;;;;;;-0.62;76.50;97227.47;13076612;22;20033;-76
2021/01/08 03:29:15;;;;;;;10.20;7.18;;;;;;;-0.63;76.39;97231.47;13142834;22;20034;-76
2021/01/08 03:34:35;;;;;;;10.25;6.90;;;;;;;-0.53;76.26;97231.78;13076103;22;20033;-76
2021/01/08 03:39:55;;;;;;;9.50;6.78;;;;;;;-0.50;76.28;97233.44;13097721;22;20027;-76
2021/01/08 03:45:14;;;;;;;7.68;6.18;;;;;;;-0.50;75.86;97220.47;13098833;22;20090;-76
2021/01/08 03:50:34;;;;;;;10.27;6.63;;;;;;;-0.54;75.94;97217.31;13097335;22;20357;-76
2021/01/08 03:55:54;;;;;;;8.10;6.50;;;;;;;-0.54;76.91;97211.84;13119259;22;20054;-76
2021/01/08 04:01:14;;;;;;;8.43;5.80;;;;;;;-0.52;76.42;97212.03;13097165;22;20095;-76
2021/01/08 04:06:35;;;;;;;8.95;6.28;;;;;;;-0.54;75.92;97220.06;13096936;22;20034;-76
2021/01/08 04:11:55;;;;;;;9.95;6.32;;;;;;;-0.54;76.46;97209.09;13111178;22;20027;-76
2021/01/08 04:17:14;;;;;;;9.68;6.50;;;;;;;-0.50;76.40;97204.00;13118464;22;20027;-76
2021/01/08 04:22:34;;;;;;;9.85;6.60;;;;;;;-0.49;76.34;97205.47;13097387;22;20019;-76
2021/01/08 04:27:54;;;;;;;9.23;6.30;;;;;;;-0.43;76.51;97219.06;13075146;22;20027;-76
2021/01/08 04:33:14;;;;;;;9.73;6.80;;;;;;;-0.45;75.69;97218.88;13075079;22;20342;-76
2021/01/08 04:38:38;;;;;;;11.68;6.93;;;;;;;-0.39;76.12;97222.94;13076069;22;20046;-76
2021/01/08 04:43:59;;;;;;;10.03;6.70;;;;;;;-0.27;76.30;97222.72;13096812;22;20080;-76
2021/01/08 04:49:19;;;;;;;9.63;6.88;;;;;;;-0.19;75.81;97221.53;13075848;22;20435;-76
2021/01/08 04:54:39;;;;;;;9.10;6.68;;;;;;;-0.09;75.48;97219.03;13095867;22;20120;-77
2021/01/08 04:59:59;;;;;;;10.68;7.10;;;;;;;-0.09;75.47;97213.56;13075540;22;20179;-76
2021/01/08 05:05:19;;;;;;;9.95;7.07;;;;;;;-0.14;75.75;97211.66;13075803;22;20034;-76
2021/01/08 05:10:39;;;;;;;9.95;7.13;;;;;;;-0.19;76.22;97204.28;13095788;22;20038;-76
2021/01/08 05:16:01;;;;;;;8.90;6.63;;;;;;;-0.16;76.41;97208.72;13032934;22;20456;-76
2021/01/08 05:21:24;;;;;;;10.45;7.53;;;;;;;-0.17;76.13;97208.00;13077198;22;20389;-76
2021/01/08 05:26:44;;;;;;;10.30;7.70;;;;;;;-0.30;76.24;97203.28;13053479;22;20086;-76
2021/01/08 05:32:05;;;;;;;9.93;7.28;;;;;;;-0.41;76.66;97205.56;13031074;22;20034;-76
2021/01/08 05:37:25;;;;;;;10.77;7.78;;;;;;;-0.46;76.71;97201.69;13030651;22;20027;-76
2021/01/08 05:43:03;;;;;;;11.55;7.82;;;;;;;-0.49;76.84;97205.47;13031973;22;20028;-76
2021/01/08 05:48:23;;;;;;;9.88;7.43;;;;;;;-0.49;77.59;97215.72;13052288;22;20085;-76
2021/01/08 05:53:48;;;;;;;11.27;8.20;;;;;;;-0.56;77.42;97217.13;13052213;22;20026;-76
2021/01/08 05:59:08;;;;;;;13.37;9.37;;;;;;;-0.65;77.54;97214.84;13030971;22;20033;-76
2021/01/08 06:04:33;;;;;;;13.50;9.02;;;;;;;-0.62;77.55;97213.75;13008933;22;20266;-76
2021/01/08 06:09:53;;;;;;;12.52;8.38;;;;;;;-0.71;78.05;97208.72;12988279;22;20039;-76
2021/01/08 06:15:15;;;;;;;13.45;8.93;;;;;;;-0.70;77.50;97227.38;13057118;22;20027;-76
2021/01/08 06:20:35;;;;;;;12.40;8.48;;;;;;;-0.69;77.71;97222.63;13094973;22;20057;-76
2021/01/08 06:25:55;;;;;;;15.43;8.63;;;;;;;-0.73;78.46;97230.47;13051437;22;20026;-76
2021/01/08 06:31:20;;;;;;;13.48;9.50;;;;;;;-0.69;77.84;97217.16;13074498;22;20141;-76
2021/01/08 06:36:46;;;;;;;13.40;9.73;;;;;;;-0.62;78.28;97214.50;13139084;22;20034;-76
2021/01/08 06:42:07;;;;;;;12.82;9.25;;;;;;;-0.60;78.55;97219.44;13118437;22;20027;-76
2021/01/08 06:47:30;;;;;;;12.65;9.38;;;;;;;-0.57;78.47;97221.13;13094387;22;20054;-76
2021/01/08 06:52:49;;;;;;;15.98;10.02;;;;;;;-0.56;78.66;97221.88;13055274;22;20027;-76
2021/01/08 06:58:09;;;;;;;13.20;9.68;;;;;;;-0.52;78.79;97228.50;13098797;22;20482;-76
2021/01/08 07:03:29;;;;;;;14.32;9.90;;;;;;;-0.49;78.82;97221.19;13099607;22;20030;-76
2021/01/08 07:08:49;;;;;;;13.45;10.07;;;;;;;-0.43;78.61;97230.78;13077927;22;20407;-76
2021/01/08 07:14:14;;;;;;;13.40;9.98;;;;;;;-0.27;78.68;97242.66;13085819;22;20037;-77
2021/01/08 07:19:36;;;;;;;15.02;10.38;;;;;;;-0.26;78.73;97246.13;13098263;22;20038;-76
2021/01/08 07:24:57;;;;;;;16.20;11.10;;;;;;;-0.24;79.19;97257.31;13076750;22;20381;-76
2021/01/08 07:30:18;;;;;;;15.35;10.32;;;;;;;-0.19;79.00;97259.16;13120814;22;20370;-76
2021/01/08 07:35:41;;;;;;;13.77;10.88;;;;;;;-0.09;78.64;97258.19;13097771;22;20434;-76
2021/01/08 07:41:04;;;;;;;14.60;11.07;;;;;;;-0.02;78.60;97256.78;13100494;22;20033;-76
2021/01/08 07:46:29;;;;;;;15.63;11.60;;;;;;;0.13;78.34;97262.41;13142917;22;20027;-76
2021/01/08 07:51:49;;;;;;;15.27;10.40;;;;;;;0.21;78.69;97274.19;13077181;22;20030;-76
2021/01/08 07:57:09;;;;;;;15.82;11.30;;;;;;;0.25;78.86;97280.06;13052463;22;20031;-76
2021/01/08 08:02:34;;;;;;;17.92;11.32;;;;;;;0.37;78.48;97285.28;13097163;22;20098;-76
2021/01/08 08:08:01;;;;;;;14.82;10.95;;;;;;;0.50;78.03;97287.97;13118629;22;20378;-76
2021/01/08 08:13:31;;;;;;;14.88;10.85;;;;;;;0.70;77.49;97295.44;13110493;22;20033;-75
2021/01/08 08:18:51;;;;;;;14.95;10.52;;;;;;;0.75;77.13;97289.06;13097310;22;20027;-74
2021/01/08 08:24:13;;;;;;;16.23;11.13;;;;;;;0.86;77.47;97297.00;13099372;22;20030;-75
2021/01/08 08:29:34;;;;;;;15.70;10.68;;;;;;;1.00;76.46;97305.16;13098341;22;20349;-77
2021/01/08 08:34:59;;;;;;;15.60;10.57;;;;;;;1.27;75.89;97311.16;13118403;22;20058;-78
2021/01/08 08:40:29;;;;;;;14.73;11.02;;;;;;;1.95;74.48;97316.19;13100166;22;20022;-77
2021/01/08 08:45:48;;;;;;;14.77;10.85;;;;;;;3.03;72.94;97318.44;13118789;22;20054;-76
2021/01/08 08:51:08;;;;;;;15.43;11.23;;;;;;;4.28;70.86;97305.78;13118024;22;20102;-76
2021/01/08 08:56:28;;;;;;;14.30;10.85;;;;;;;5.39;66.29;97305.13;13095614;22;20452;-76
2021/01/08 09:01:48;;;;;;;12.70;10.18;;;;;;;6.58;62.55;97315.78;13120026;22;20026;-76
2021/01/08 09:07:13;;;;;;;12.10;9.68;;;;;;;8.63;69.28;97314.44;13140650;22;20034;-76
2021/01/08 09:13:15;;;;;;;12.13;9.77;;;;;;;8.63;64.79;97308.84;13091235;22;20342;-76
2021/01/08 09:18:39;;;;;;;12.75;9.73;;;;;;;7.28;62.56;97304.25;13116492;22;20396;-76
2021/01/08 09:24:00;;;;;;;14.77;9.48;;;;;;;6.56;62.21;97321.19;13116869;22;20367;-76
2021/01/08 09:29:34;;;;;;;13.45;9.60;;;;;;;5.78;62.36;97333.13;13053442;22;20022;-76
2021/01/08 09:34:59;;;;;;;12.90;8.82;;;;;;;5.79;60.22;97325.53;13140348;22;20484;-76
2021/01/08 09:40:20;;;;;;;11.73;8.88;;;;;;;9.34;65.97;97324.72;13118285;22;20029;-76
2021/01/08 09:45:41;;;;;;;10.35;8.38;;;;;;;14.51;53.13;97316.97;13116972;22;20030;-75
2021/01/08 09:51:06;;;;;;;10.63;8.40;;;;;;;20.81;47.53;97314.50;13139980;22;20030;-75
2021/01/08 09:56:26;;;;;;;10.23;7.65;;;;;;;21.94;42.15;97315.19;13139772;22;20033;-75
2021/01/08 10:02:01;;;;;;;8.93;7.20;;;;;;;14.54;40.11;97316.41;13120516;22;20449;-77
2021/01/08 10:07:21;;;;;;;;;;;;;;;9.17;46.16;97309.00;13125394;22;20061;-77
2021/01/08 10:12:49;;;;;;;10.57;7.68;;;;;;;6.43;51.94;97310.47;13094888;22;19929;-77
2021/01/08 10:18:15;;;;;;;9.85;6.72;;;;;;;5.66;52.42;97315.53;13141124;22;20030;-76
2021/01/08 10:23:40;;;;;;;9.05;6.60;;;;;;;5.13;54.92;97306.53;13118666;22;20033;-75
2021/01/08 10:29:01;;;;;;;8.02;6.07;;;;;;;4.91;56.35;97312.28;13142301;22;20030;-74
2021/01/08 10:34:21;;;;;;;7.95;5.88;;;;;;;5.00;56.22;97306.09;13075493;22;20027;-77
2021/01/08 10:39:40;;;;;;;7.85;5.28;;;;;;;6.07;54.91;97291.03;13120383;22;20096;-76
2021/01/08 10:45:01;;;;;;;5.97;5.10;;;;;;;8.15;53.80;97285.44;13118165;22;20042;-76
2021/01/08 10:50:20;;;;;;;5.65;3.90;;;;;;;7.88;50.52;97298.81;13118608;22;20374;-76
2021/01/08 11:01:42;;;;;;;4.15;3.53;;;;;;;7.58;50.81;97284.22;13027659;22;20034;-78
2021/01/08 11:07:05;;;;;;;4.13;3.63;;;;;;;7.91;50.36;97286.50;13039065;22;20396;-77
2021/01/08 11:12:26;;;;;;;4.55;3.63;;;;;;;8.84;47.99;97292.19;13077168;22;20027;-77
2021/01/08 11:17:46;;;;;;;6.93;3.83;;;;;;;8.50;47.79;97296.19;13076557;22;20031;-76
2021/01/08 11:23:05;;;;;;;5.38;3.90;;;;;;;7.93;48.22;97292.97;13076493;22;20477;-76
2021/01/08 11:28:25;;;;;;;3.55;2.78;;;;;;;6.53;49.76;97302.91;13032174;22;20081;-76
2021/01/08 11:33:48;;;;;;;3.70;2.55;;;;;;;6.11;50.32;97289.31;13030854;22;20418;-77
2021/01/08 11:39:08;;;;;;;4.75;2.95;;;;;;;5.85;51.58;97292.78;13053289;22;20107;-77
2021/01/08 11:44:28;;;;;;;3.03;2.35;;;;;;;5.56;51.96;97300.91;13060535;22;20027;-79
2021/01/08 11:49:48;;;;;;;3.20;2.22;;;;;;;4.84;53.04;97302.75;13077393;22;20389;-77
2021/01/08 11:55:09;;;;;;;4.20;3.00;;;;;;;4.76;53.19;97294.53;13052822;22;20408;-77
2021/01/08 12:00:28;;;;;;;4.00;2.65;;;;;;;4.91;52.84;97306.75;13091429;22;20034;-77
2021/01/08 12:05:49;;;;;;;3.22;2.30;;;;;;;5.11;53.04;97302.84;13119601;22;20048;-76
2021/01/08 12:11:09;;;;;;;4.38;2.83;;;;;;;5.42;52.63;97297.75;13120449;22;20442;-76
2021/01/08 12:16:32;;;;;;;5.32;3.38;;;;;;;5.91;52.52;97302.34;13118606;22;20026;-76
2021/01/08 12:21:52;;;;;;;4.65;3.30;;;;;;;5.90;52.08;97302.91;13141887;22;20110;-75
2021/01/08 12:27:12;;;;;;;4.22;2.92;;;;;;;5.73;51.92;97298.13;13118694;22;20061;-75
2021/01/08 12:32:32;;;;;;;6.63;2.95;;;;;;;5.20;52.74;97304.25;13141857;22;20057;-75
2021/01/08 12:37:52;;;;;;;4.63;3.13;;;;;;;4.79;53.50;97296.16;13096537;22;20026;-75
2021/01/08 12:43:12;;;;;;;4.30;2.90;;;;;;;4.94;53.36;97291.78;13096411;22;20032;-75
2021/01/08 12:48:32;;;;;;;5.68;3.38;;;;;;;5.26;53.02;97297.16;13118302;22;20031;-75
2021/01/08 12:53:52;;;;;;;4.07;2.85;;;;;;;4.73;53.04;97301.19;13142555;22;20070;-75
2021/01/08 12:59:12;;;;;;;4.25;3.20;;;;;;;4.12;54.99;97298.13;13094878;22;20027;-75
2021/01/08 13:04:32;;;;;;;5.70;4.10;;;;;;;3.37;58.58;97298.66;13117879;22;20038;-75
2021/01/08 13:09:52;;;;;;;4.68;3.72;;;;;;;3.34;57.12;97299.78;13117514;22;20027;-76
2021/01/08 13:15:12;;;;;;;4.25;3.08;;;;;;;3.26;57.17;97301.09;13120194;22;20027;-75
2021/01/08 13:20:32;;;;;;;4.07;3.35;;;;;;;2.92;57.54;97301.56;13142062;22;20103;-78
2021/01/08 13:25:52;;;;;;;4.65;3.58;;;;;;;2.82;58.47;97313.13;13116885;22;20053;-77
2021/01/08 13:31:11;;;;;;;5.50;3.85;;;;;;;2.59;59.27;97304.88;13074917;22;20057;-77
2021/01/08 13:36:36;;;;;;;7.20;4.82;;;;;;;2.44;60.87;97309.66;13117580;22;20454;-78
2021/01/08 13:42:03;;;;;;;6.33;5.13;;;;;;;2.23;61.59;97312.59;13123402;22;20027;-78
2021/01/08 13:47:28;;;;;;;8.60;5.75;;;;;;;1.94;63.65;97320.22;13121117;22;20256;-79
2021/01/08 13:52:50;;;;;;;8.50;5.90;;;;;;;1.81;65.05;97326.59;13118250;22;20026;-77
2021/01/08 13:58:12;;;;;;;9.82;5.80;;;;;;;1.68;65.74;97327.47;13126059;22;20033;-80
2021/01/08 14:03:33;;;;;;;9.45;5.78;;;;;;;1.65;64.70;97325.81;13082146;22;20453;-75
2021/01/08 14:08:54;;;;;;;5.78;4.97;;;;;;;1.57;64.70;97335.31;13117638;22;20051;-75
2021/01/08 14:14:14;;;;;;;8.85;5.40;;;;;;;1.51;62.79;97340.97;13114789;22;20097;-75
2021/01/08 14:19:33;;;;;;;8.48;5.50;;;;;;;1.43;65.11;97340.94;13119893;22;20031;-79
2021/01/08 14:24:54;;;;;;;9.52;5.85;;;;;;;1.30;64.41;97338.31;13102767;22;20034;-77
2021/01/08 14:30:14;;;;;;;8.73;6.00;;;;;;;1.17;64.78;97337.69;13115862;22;20065;-78
2021/01/08 14:35:34;;;;;;;9.07;6.43;;;;;;;1.21;65.36;97336.06;13116861;22;20086;-76
2021/01/08 14:40:54;;;;;;;15.60;6.50;;;;;;;1.08;65.97;97338.94;13114897;22;20060;-77
2021/01/08 14:46:14;;;;;;;9.52;6.63;;;;;;;1.07;66.02;97338.19;13137670;22;20151;-75
2021/01/08 14:51:36;;;;;;;12.43;6.43;;;;;;;1.11;66.17;97348.84;13114560;22;20027;-75
2021/01/08 14:56:57;;;;;;;9.30;5.80;;;;;;;1.10;64.77;97369.34;13114293;22;20098;-77
2021/01/08 15:02:17;;;;;;;9.52;6.70;;;;;;;0.99;67.37;97364.88;13125191;22;20102;-76
2021/01/08 15:07:37;;;;;;;11.52;6.00;;;;;;;0.93;67.66;97361.53;13139660;22;20032;-77
2021/01/08 15:12:56;;;;;;;10.38;6.60;;;;;;;0.86;67.81;97351.22;13120422;22;20030;-77
2021/01/08 15:18:16;;;;;;;8.70;6.32;;;;;;;0.79;68.04;97362.91;13141399;22;20110;-77
2021/01/08 15:23:37;;;;;;;10.38;6.85;;;;;;;0.74;67.76;97375.50;13140023;22;20030;-77
2021/01/08 15:28:56;;;;;;;11.13;7.25;;;;;;;0.73;66.39;97378.78;13141921;22;20049;-76
2021/01/08 15:34:16;;;;;;;9.20;6.50;;;;;;;0.75;67.57;97378.97;13141955;22;20033;-76
2021/01/08 15:39:36;;;;;;;12.68;7.40;;;;;;;0.76;67.60;97392.19;13120034;22;20102;-76
2021/01/08 15:44:56;;;;;;;14.00;7.07;;;;;;;0.77;68.34;97377.19;13128917;22;20476;-75
2021/01/08 15:50:17;;;;;;;11.05;7.35;;;;;;;0.78;67.82;97378.66;13140572;22;20037;-74
2021/01/08 15:55:40;;;;;;;10.05;7.60;;;;;;;0.76;68.42;97392.19;13118788;22;20350;-76
2021/01/08 16:01:00;;;;;;;9.65;6.90;;;;;;;0.70;69.68;97393.59;13112589;22;20314;-76
2021/01/08 16:06:20;;;;;;;10.05;7.15;;;;;;;0.65;70.16;97397.22;13142427;22;20346;-73
2021/01/08 16:11:40;;;;;;;10.85;7.72;;;;;;;0.61;68.87;97399.56;13117101;22;20080;-75
2021/01/08 16:16:59;;;;;;;11.82;7.68;;;;;;;0.57;69.42;97414.34;13116648;22;20453;-74
2021/01/08 16:22:19;;;;;;;9.32;7.10;;;;;;;0.52;70.46;97412.50;13095110;22;20057;-75
2021/01/08 16:27:41;;;;;;;9.70;7.18;;;;;;;0.51;70.75;97418.53;13116873;22;20026;-74
2021/01/08 16:33:01;;;;;;;13.75;7.40;;;;;;;0.46;70.66;97430.34;13116962;22;20079;-73
2021/01/08 16:38:25;;;;;;;11.90;7.72;;;;;;;0.52;69.15;97414.50;13116547;22;20027;-75
2021/01/08 16:43:45;;;;;;;12.23;7.97;;;;;;;0.49;69.76;97418.31;13094850;22;20322;-75
2021/01/08 16:49:05;;;;;;;11.43;8.30;;;;;;;0.51;70.96;97430.25;13094744;22;20027;-74
2021/01/08 16:54:25;;;;;;;10.63;8.20;;;;;;;0.52;70.38;97436.47;13094463;22;20050;-74
2021/01/08 16:59:45;;;;;;;12.02;8.63;;;;;;;0.46;71.35;97435.84;13112842;22;20033;-76
2021/01/08 17:05:06;;;;;;;13.43;8.10;;;;;;;0.36;71.09;97438.31;13083741;22;20106;-78
2021/01/08 17:10:26;;;;;;;11.02;8.60;;;;;;;0.35;71.07;97444.34;13053448;22;20054;-77
2021/01/08 17:15:45;;;;;;;13.40;9.05;;;;;;;0.34;71.50;97440.13;13053099;22;20409;-76
2021/01/08 17:21:05;;;;;;;13.20;8.57;;;;;;;0.38;71.10;97443.25;13052090;22;20346;-76
2021/01/08 17:26:58;;;;;;;13.57;8.95;;;;;;;0.36;71.98;97437.56;13058358;22;20015;-81
2021/01/08 17:32:47;;;;;;;12.45;8.30;;;;;;;0.41;71.29;97437.47;12980745;22;20505;-82
2021/01/08 17:38:10;;;;;;;;;;;;;;;0.43;72.19;97451.38;12942917;22;20012;-82
2021/01/08 17:43:31;;;;;;;13.20;8.90;;;;;;;0.41;71.40;97458.69;12922213;23;19922;-77
2021/01/08 17:48:51;;;;;;;14.10;8.68;;;;;;;0.42;72.21;97451.94;12940228;23;20058;-76
2021/01/08 17:54:12;;;;;;;12.30;8.65;;;;;;;0.37;72.44;97459.00;12899755;22;20375;-78
2021/01/08 17:59:32;;;;;;;12.18;9.05;;;;;;;0.38;72.66;97457.00;12878273;22;20406;-74
2021/01/08 18:04:51;;;;;;;14.90;9.77;;;;;;;0.34;72.54;97462.09;12983567;22;20059;-78
2021/01/08 18:10:12;;;;;;;15.45;10.35;;;;;;;0.39;73.17;97470.22;12987900;22;20012;-76
2021/01/08 18:15:32;;;;;;;14.18;9.98;;;;;;;0.47;72.21;97475.78;12985387;22;20024;-76
2021/01/08 18:20:57;;;;;;;13.70;9.82;;;;;;;0.52;72.31;97483.16;13002383;22;20047;-81
2021/01/08 18:26:35;;;;;;;14.98;10.35;;;;;;;0.49;72.50;97478.75;13005052;22;20571;-77
2021/01/08 18:31:55;;;;;;;14.68;10.23;;;;;;;0.53;73.08;97473.66;13006112;22;20028;-76
2021/01/08 18:37:16;;;;;;;13.77;9.35;;;;;;;0.57;73.19;97479.53;13002638;22;20032;-76
2021/01/08 18:42:38;;;;;;;13.73;9.35;;;;;;;0.58;72.83;97486.53;13053851;22;20023;-77
2021/01/08 18:47:58;;;;;;;13.82;10.02;;;;;;;0.57;72.39;97490.53;13082064;22;20378;-76
2021/01/08 18:53:20;;;;;;;14.75;10.68;;;;;;;0.57;72.33;97493.28;13075867;22;20034;-75
2021/01/08 18:58:40;;;;;;;14.70;10.43;;;;;;;0.61;73.04;97501.94;13053853;22;20055;-76
2021/01/08 19:04:24;;;;;;;14.27;10.50;;;;;;;0.61;72.81;97498.47;13080075;22;20042;-84
2021/01/08 19:09:51;;;;;;;15.48;11.20;;;;;;;0.57;73.23;97498.75;13061979;22;20098;-77
2021/01/08 19:15:13;;;;;;;15.85;11.50;;;;;;;0.60;73.40;97503.22;13080631;22;20027;-78
2021/01/08 19:20:53;;;;;;;16.52;11.45;;;;;;;0.60;72.98;97503.22;13092954;22;20011;-82
2021/01/08 19:26:21;;;;;;;15.77;11.32;;;;;;;0.61;72.61;97512.94;13119054;22;20085;-80
2021/01/08 19:31:52;;;;;;;18.42;12.48;;;;;;;0.71;72.42;97513.94;13107949;22;20011;-83
2021/01/08 19:37:12;;;;;;;;;;;;;;;0.76;72.78;97506.84;13108603;22;20028;-79
2021/01/08 19:42:37;;;;;;;18.63;13.48;;;;;;;0.74;73.26;97515.63;13107669;22;20368;-80
2021/01/08 19:48:08;;;;;;;;;;;;;;;0.66;73.20;97525.78;13071070;22;20033;-82
2021/01/08 19:54:09;;;;;;;19.92;13.75;;;;;;;0.54;73.47;97522.56;13050316;22;19921;-83
2021/01/08 19:59:57;;;;;;;16.60;11.93;;;;;;;0.48;73.19;97529.41;13126691;22;20025;-79
2021/01/08 20:05:25;;;;;;;15.75;11.77;;;;;;;0.52;73.54;97535.34;13145065;22;20011;-82
2021/01/08 20:10:58;;;;;;;15.38;11.38;;;;;;;0.41;73.65;97538.34;12982572;22;20089;-80
2021/01/08 20:16:20;;;;;;;17.87;13.33;;;;;;;0.35;74.33;97543.19;13027658;22;20392;-79
2021/01/08 20:22:49;;;;;;;18.40;12.75;;;;;;;0.31;74.32;97542.78;13087306;22;20180;-83
2021/01/08 20:41:38;;;;;;;16.08;11.95;;;;;;;-0.18;76.29;97552.19;13092439;22;20019;-83
2021/01/08 20:47:32;;;;;;;18.05;12.23;;;;;;;-0.47;77.10;97551.22;13038749;22;20030;-82
2021/01/08 20:53:09;;;;;;;16.83;12.57;;;;;;;-0.53;77.01;97561.53;13076867;22;20027;-80
2021/01/08 20:59:16;;;;;;;16.85;12.38;;;;;;;-0.45;76.38;97547.94;13006862;22;20027;-82
2021/01/08 21:04:41;;;;;;;16.45;11.38;;;;;;;-0.30;76.08;97543.41;13003994;22;20054;-79
2021/01/08 21:10:01;;;;;;;14.40;11.35;;;;;;;-0.18;77.30;97560.44;13087320;22;20027;-78
2021/01/08 21:15:22;;;;;;;16.63;11.32;;;;;;;-0.05;76.02;97565.91;13053343;22;20034;-78
2021/01/08 21:20:42;;;;;;;13.98;10.27;;;;;;;0.00;76.31;97567.09;13051876;22;20098;-77
2021/01/08 21:26:06;;;;;;;16.17;11.15;;;;;;;0.09;76.50;97568.66;13051568;22;20027;-76
2021/01/08 21:31:26;;;;;;;12.95;10.13;;;;;;;0.13;76.20;97550.59;13074930;22;20031;-75
2021/01/08 21:36:47;;;;;;;13.18;10.15;;;;;;;0.17;75.53;97575.72;13051596;22;20050;-76
2021/01/08 21:42:06;;;;;;;13.10;10.38;;;;;;;0.27;75.92;97557.56;13032024;22;20076;-75
2021/01/08 21:47:30;;;;;;;13.80;10.30;;;;;;;0.34;75.59;97563.69;13031366;22;20069;-75
2021/01/08 21:52:50;;;;;;;12.38;9.50;;;;;;;0.33;75.43;97571.19;13072981;22;20027;-76
2021/01/08 21:58:10;;;;;;;11.98;9.45;;;;;;;0.21;75.72;97578.91;13050645;22;20027;-76
2021/01/08 22:03:29;;;;;;;12.40;9.80;;;;;;;0.08;75.54;97584.38;13029040;22;20446;-77
2021/01/08 22:08:49;;;;;;;12.85;9.88;;;;;;;-0.05;75.99;97590.63;13073565;22;20109;-77
2021/01/08 22:14:10;;;;;;;14.23;10.02;;;;;;;-0.17;76.12;97597.56;13073531;22;20058;-75
2021/01/08 22:19:29;;;;;;;14.07;10.38;;;;;;;-0.33;76.37;97587.63;13054311;22;20033;-76
2021/01/08 22:24:49;;;;;;;12.63;9.93;;;;;;;-0.43;76.40;97598.25;13054525;22;20106;-75
2021/01/08 22:30:09;;;;;;;13.27;9.38;;;;;;;-0.49;76.17;97589.38;13054550;22;20027;-77
2021/01/08 22:35:29;;;;;;;13.98;9.60;;;;;;;-0.50;76.45;97587.91;13096642;22;20057;-80
2021/01/08 22:40:49;;;;;;;11.45;9.57;;;;;;;-0.43;75.99;97592.03;13038061;22;20094;-73
2021/01/08 22:46:21;;;;;;;13.18;9.32;;;;;;;-0.43;76.69;97595.50;13079022;22;20027;-73
2021/01/08 22:51:41;;;;;;;10.98;8.48;;;;;;;-0.31;76.51;97599.53;12994758;22;20027;-73
2021/01/08 22:57:05;;;;;;;11.73;9.07;;;;;;;-0.19;77.00;97599.34;12991421;22;20368;-73
2021/01/08 23:02:26;;;;;;;12.50;8.85;;;;;;;-0.07;76.58;97600.63;13016694;22;20107;-73
2021/01/08 23:07:46;;;;;;;11.95;9.07;;;;;;;0.06;76.13;97608.88;13012935;22;20080;-73
2021/01/08 23:13:06;;;;;;;12.20;8.70;;;;;;;0.15;76.56;97605.72;13013993;22;20395;-73
2021/01/08 23:18:27;;;;;;;11.52;9.40;;;;;;;0.21;76.41;97609.09;13035102;22;20031;-73
2021/01/08 23:23:48;;;;;;;12.65;9.35;;;;;;;0.24;75.87;97616.28;13013653;22;20145;-73
2021/01/08 23:29:09;;;;;;;10.55;8.27;;;;;;;0.23;76.27;97617.53;13034084;22;20162;-73
2021/01/08 23:34:29;;;;;;;11.07;8.65;;;;;;;0.25;75.80;97630.75;13034324;22;20106;-73
2021/01/08 23:39:49;;;;;;;11.93;8.00;;;;;;;0.30;75.78;97627.16;12998610;22;20031;-73
2021/01/08 23:45:12;;;;;;;9.93;7.82;;;;;;;0.35;76.02;97629.06;13034922;22;20442;-73
2021/01/08 23:50:32;;;;;;;11.05;8.32;;;;;;;0.41;75.92;97637.19;12970430;22;20031;-73
2021/01/08 23:55:52;;;;;;;10.05;8.13;;;;;;;0.40;76.32;97636.47;13032988;22;20485;-73
